Latest Weather Observations for Warragul (Nilma North)

IDV60801

Issued at 8:35 am EDT Wednesday 26 November 2014 (issued every 30 minutes, with the page automatically refreshed every 10 minutes)

About weather observations | Map of weather stations | Latest weather observations for VIC | Other Formats
Station Details ID: 085313 Name: NILMA NORTH (WARRAGUL) Lat: -38.13 Lon: 145.99 Height: 134.11 m
Data from the previous 72 hours. | See also: Recent months for locations in Victoria
Date/Time
EDT
Temp
°C
App
Temp
°C
Dew
Point
Rel
Hum
%
Delta-T
°C
Wind Press
QNH
hPa
Press
MSL
hPa
Rain
since 9 am
mm
Dir
 
Spd
km/h
Gust
km/h
Spd
kts
Gust
kts
26/08:30am 12.9 11.1 9.5 80 1.7 WNW 9 15 5 8 1021.0 1020.9 1.2
26/08:00am 11.5 9.8 8.5 82 1.5 WNW 7 15 4 8 1020.7 1020.6 1.2
26/07:30am 10.7 9.2 8.3 85 1.2 WNW 6 9 3 5 1020.4 1020.3 1.2
26/07:00am 10.2 8.6 8.1 87 1.0 WNW 6 11 3 6 1020.3 1020.2 1.2
26/06:30am 9.6 7.9 7.7 88 0.9 WNW 6 9 3 5 1020.1 1020.0 1.2
26/06:00am 9.3 8.0 7.6 89 0.8 WNW 4 7 2 4 1019.9 1019.8 1.2
26/05:30am 8.9 7.2 7.4 90 0.7 W 6 9 3 5 1019.7 1019.6 1.2
26/05:00am 8.9 7.6 7.5 91 0.7 WNW 4 7 2 4 1019.4 1019.3 1.2
26/04:30am 8.9 7.6 7.5 91 0.7 WNW 4 7 2 4 1019.4 1019.3 1.2
26/04:00am 9.6 7.9 7.7 88 0.9 NW 6 9 3 5 1019.5 1019.4 1.2
26/03:30am 10.3 9.1 8.1 86 1.1 NW 4 6 2 3 1019.4 1019.3 1.2
26/03:00am 10.6 10.2 8.4 86 1.1 CALM 0 2 0 1 1019.5 1019.4 1.2
26/02:30am 10.7 9.1 7.9 83 1.4 W 6 7 3 4 1019.7 1019.6 1.2
26/02:00am 11.4 10.3 8.3 81 1.5 WNW 4 7 2 4 1019.9 1019.8 1.2
26/01:30am 11.7 10.2 8.6 81 1.5 WNW 6 9 3 5 1020.1 1020.0 1.2
26/01:00am 11.7 10.3 8.9 83 1.4 WNW 6 9 3 5 1020.5 1020.4 1.2
26/12:30am 11.3 9.9 8.9 85 1.2 NW 6 9 3 5 1020.7 1020.6 1.2
26/12:00am 11.4 9.9 8.4 82 1.5 WNW 6 9 3 5 1021.0 1020.9 1.2
 
Date/Time
EDT
Temp
°C
App
Temp
°C
Dew
Point
Rel
Hum
%
Delta-T
°C
Wind Press
QNH
hPa
Press
MSL
hPa
Rain
since 9 am
mm
Dir
 
Spd
km/h
Gust
km/h
Spd
kts
Gust
kts
25/11:30pm 12.3 10.8 9.1 81 1.6 WNW 7 11 4 6 1021.2 1021.1 1.2
25/11:00pm 12.4 10.9 9.1 80 1.7 WNW 7 9 4 5 1021.5 1021.3 1.2
25/10:30pm 12.3 11.5 9.5 83 1.4 WNW 4 7 2 4 1021.4 1021.2 1.2
25/10:00pm 11.9 11.4 9.5 85 1.2 NW 2 6 1 3 1021.4 1021.2 1.2
25/09:30pm 11.8 10.8 8.8 82 1.5 WNW 4 7 2 4 1021.1 1021.0 1.2
25/09:00pm 12.3 10.9 9.0 80 1.7 W 6 11 3 6 1020.7 1020.6 1.2
25/08:30pm 13.3 11.4 9.0 75 2.2 WSW 9 15 5 8 1020.5 1020.4 1.2
25/08:00pm 13.8 11.1 8.8 72 2.5 WSW 13 22 7 12 1020.2 1020.1 1.2
25/07:30pm 14.6 13.2 9.4 71 2.7 SW 7 15 4 8 1019.7 1019.6 1.2
25/07:00pm 15.0 12.0 9.4 69 2.9 WSW 15 26 8 14 1019.3 1019.2 1.2
25/06:30pm 16.1 13.4 10.4 69 3.0 WSW 15 26 8 14 1018.7 1018.6 1.2
25/06:00pm 16.9 14.2 10.5 66 3.4 WSW 15 26 8 14 1018.3 1018.1 1.2
25/05:30pm 16.8 13.7 10.4 66 3.4 WSW 17 28 9 15 1018.2 1018.0 1.2
25/05:00pm 17.4 15.2 10.8 65 3.6 SW 13 26 7 14 1018.1 1017.9 1.2
25/04:30pm 17.6 14.2 10.7 64 3.7 WSW 19 30 10 16 1018.1 1017.9 1.2
25/04:00pm 16.9 14.4 9.6 62 3.8 W 13 24 7 13 1018.0 1017.8 1.2
25/03:30pm 17.3 13.7 10.0 62 3.9 W 19 32 10 17 1018.2 1018.0 1.2
25/03:00pm 16.8 12.6 9.7 63 3.7 W 22 43 12 23 1018.2 1018.0 1.2
25/02:30pm 17.7 14.6 11.5 67 3.4 W 19 30 10 16 1018.3 1018.1 1.2
25/02:00pm 16.4 12.5 9.6 64 3.6 W 20 32 11 17 1018.2 1018.0 1.2
25/01:30pm 16.0 13.3 10.3 69 3.0 WSW 15 26 8 14 1018.3 1018.1 1.2
25/01:00pm 14.7 10.8 9.3 70 2.8 W 20 33 11 18 1018.2 1018.0 1.2
25/12:30pm 15.0 12.3 10.2 73 2.5 W 15 28 8 15 1018.2 1018.0 1.2
25/12:00pm 15.5 12.1 11.3 76 2.3 W 20 48 11 26 1017.9 1017.7 1.2
25/11:30am 12.3 8.7 10.4 88 1.0 W 20 37 11 20 1018.4 1018.2 1.2
25/11:00am 14.8 10.2 9.6 71 2.7 W 24 35 13 19 1017.8 1017.6 0.2
25/10:30am 14.2 9.3 10.0 76 2.2 W 26 41 14 22 1017.8 1017.6 0.2
25/10:00am 13.0 9.5 10.2 83 1.5 WNW 19 30 10 16 1017.7 1017.5 0.2
25/09:30am 12.4 8.6 8.9 79 1.8 W 19 30 10 16 1017.4 1017.2 0.0
25/09:00am 13.0 9.3 9.4 79 1.8 WNW 19 33 10 18 1017.0 1016.8 19.6
25/08:30am 12.0 8.2 9.0 82 1.5 WNW 19 35 10 19 1016.6 1016.4 19.6
25/08:00am 12.0 8.5 8.8 81 1.6 WNW 17 32 9 17 1016.2 1016.0 19.6
25/07:30am 11.2 8.4 8.4 83 1.4 WNW 13 22 7 12 1015.8 1015.6 19.6
25/07:00am 11.1 7.5 8.3 83 1.4 WNW 17 32 9 17 1015.4 1015.2 19.6
25/06:30am 10.4 6.3 8.0 85 1.2 WNW 19 28 10 15 1014.9 1014.7 19.6
25/06:00am 10.1 6.0 7.7 85 1.2 WNW 19 32 10 17 1014.4 1014.2 19.6
25/05:30am 10.0 5.8 7.6 85 1.2 WNW 19 32 10 17 1014.0 1013.8 19.6
25/05:00am 10.0 5.9 7.8 86 1.1 WNW 19 30 10 16 1013.7 1013.5 19.6
25/04:30am 10.0 6.3 7.9 87 1.0 WNW 17 30 9 16 1013.2 1013.1 19.6
25/04:00am 10.0 6.3 8.1 88 0.9 WNW 17 26 9 14 1013.1 1013.0 19.6
25/03:30am 9.8 6.5 7.9 88 0.9 WNW 15 20 8 11 1013.2 1013.1 19.6
25/03:00am 9.9 6.2 7.8 87 1.0 W 17 24 9 13 1013.2 1013.1 19.6
25/02:30am 10.3 6.6 8.1 86 1.1 WNW 17 24 9 13 1013.0 1012.9 19.6
25/02:00am 10.0 6.8 8.4 90 0.8 W 15 20 8 11 1013.0 1012.9 19.6
25/01:30am 10.5 7.4 8.9 90 0.8 W 15 20 8 11 1013.1 1013.0 19.6
25/01:00am 11.4 8.5 9.5 88 1.0 W 15 22 8 12 1013.2 1013.1 19.2
25/12:30am 11.6 9.8 10.7 94 0.5 WNW 11 19 6 10 1012.8 1012.7 19.0
25/12:00am 11.7 10.3 10.8 94 0.5 W 9 15 5 8 1012.9 1012.8 19.0
 
Date/Time
EDT
Temp
°C
App
Temp
°C
Dew
Point
Rel
Hum
%
Delta-T
°C
Wind Press
QNH
hPa
Press
MSL
hPa
Rain
since 9 am
mm
Dir
 
Spd
km/h
Gust
km/h
Spd
kts
Gust
kts
24/11:30pm 11.5 10.0 10.6 94 0.5 WNW 9 13 5 7 1012.8 1012.7 18.8
24/11:00pm 11.6 10.2 10.8 95 0.4 W 9 15 5 8 1012.5 1012.4 18.6
24/10:30pm 12.0 10.7 11.2 95 0.4 WNW 9 13 5 7 1012.6 1012.5 18.6
24/10:00pm 12.0 10.3 11.1 94 0.5 W 11 17 6 9 1012.3 1012.2 18.6
24/09:30pm 12.3 10.6 11.2 93 0.6 W 11 17 6 9 1012.2 1012.1 18.4
24/09:00pm 12.9 11.2 11.3 90 0.9 WSW 11 22 6 12 1011.5 1011.3 18.4
24/08:30pm 13.2 10.1 12.3 94 0.5 WSW 20 33 11 18 1010.6 1010.4 18.4
24/08:00pm 14.1 13.3 12.8 92 0.7 WSW 9 20 5 11 1009.9 1009.7 17.2
24/07:30pm 14.7 13.4 12.6 87 1.2 WSW 11 19 6 10 1009.6 1009.4 17.0
24/07:00pm 14.9 13.9 13.3 90 0.9 WSW 11 22 6 12 1009.2 1009.0 17.0
24/06:30pm 15.2 13.9 13.6 90 0.9 WSW 13 24 7 13 1008.5 1008.3 17.0
24/06:00pm 15.6 15.4 14.8 95 0.5 W 9 19 5 10 1007.6 1007.4 17.0
24/05:30pm 16.4 16.3 15.9 97 0.3 W 11 30 6 16 1006.3 1006.1 16.4
24/05:00pm 16.7 15.9 16.2 97 0.3 W 15 24 8 13 1006.0 1005.8 12.2
24/04:30pm 16.7 15.9 16.1 96 0.4 W 15 24 8 13 1006.2 1006.0 10.4
24/04:00pm 19.4 21.5 18.2 93 0.7 NNW 4 11 2 6 1005.1 1004.9 6.6
24/03:30pm 17.7 18.8 17.1 96 0.4 ENE 7 9 4 5 1005.3 1005.1 6.6
24/03:00pm 17.1 17.1 16.3 95 0.5 E 11 15 6 8 1005.5 1005.3 6.0
24/02:30pm 17.4 17.8 16.4 94 0.6 E 9 15 5 8 1006.4 1006.2 5.8
24/02:07pm 17.4 18.3 16.6 95 0.5 N 7 17 4 9 1006.0 1005.8 5.6
24/02:00pm 17.1 18.0 16.1 94 0.6 W 6 7 3 4 1008.0 1007.8 5.4
24/01:30pm 16.6 16.8 15.8 95 0.5 N 9 22 5 12 1006.2 1006.0 5.0
24/01:27pm 16.8 17.7 16.0 95 0.5 W 6 13 3 7 1007.2 1007.0 4.8
24/01:00pm 16.4 17.5 15.6 95 0.5 WSW 4 7 2 4 1009.2 1009.0 4.2
24/12:30pm 16.1 17.4 15.1 94 0.6 SSW 2 6 1 3 1009.1 1008.9 2.6
24/12:00pm 16.0 17.2 14.9 93 0.6 WNW 2 4 1 2 1009.5 1009.3 1.2
24/11:30am 15.7 16.5 14.7 94 0.6 WSW 4 9 2 5 1009.9 1009.7 1.2
24/11:00am 15.4 16.0 14.3 93 0.6 NW 4 6 2 3 1009.6 1009.4 1.2
24/10:30am 15.1 13.9 14.0 93 0.6 W 13 20 7 11 1010.1 1009.9 0.8
24/10:00am 14.8 14.6 13.7 93 0.6 W 7 15 4 8 1010.1 1009.9 0.6
24/09:30am 14.7 14.8 12.7 88 1.1 SE 4 9 2 5 1009.7 1009.5 0.0
24/09:00am 14.2 13.5 12.1 87 1.1 SE 7 15 4 8 1008.6 1008.4 0.0
24/08:30am 13.8 11.9 11.8 88 1.1 ENE 13 24 7 13 1008.2 1008.0 0.0
24/08:00am 14.0 11.2 11.5 85 1.3 E 17 28 9 15 1008.4 1008.2 0.0
24/07:30am 14.0 12.6 11.0 82 1.6 E 9 17 5 9 1009.1 1008.9 0.0
24/07:00am 13.7 11.4 10.5 81 1.7 E 13 19 7 10 1009.3 1009.1 0.0
24/06:30am 13.7 12.1 10.1 79 1.9 E 9 17 5 9 1009.4 1009.2 0.0
24/06:00am 13.7 10.1 9.7 77 2.1 E 19 33 10 18 1008.8 1008.6 0.0
24/05:30am 13.5 10.5 9.4 76 2.1 E 15 24 8 13 1008.9 1008.7 0.0
24/05:00am 13.1 10.6 9.7 80 1.8 E 13 20 7 11 1009.1 1008.9 0.0
24/04:30am 12.7 11.3 9.5 81 1.6 E 7 11 4 6 1009.5 1009.3 0.0
24/04:00am 12.8 11.4 9.4 80 1.7 E 7 13 4 7 1009.6 1009.4 0.0
24/03:30am 13.1 11.3 9.5 79 1.8 E 9 17 5 9 1010.0 1009.8 0.0
24/03:00am 13.3 11.5 9.5 78 2.0 E 9 17 5 9 1010.7 1010.5 0.0
24/02:30am 13.4 11.6 9.6 78 2.0 E 9 15 5 8 1011.1 1010.9 0.0
24/02:00am 13.5 11.8 9.9 79 1.9 E 9 15 5 8 1011.6 1011.4 0.0
24/01:30am 14.0 12.7 10.0 77 2.1 E 7 13 4 7 1012.4 1012.3 0.0
24/01:00am 14.1 12.5 10.1 77 2.1 E 9 17 5 9 1012.8 1012.7 0.0
24/12:30am 14.4 12.4 10.2 76 2.2 E 11 17 6 9 1012.7 1012.6 0.0
24/12:00am 14.8 12.4 10.2 74 2.4 E 13 24 7 13 1012.9 1012.8 0.0
 
Date/Time
EDT
Temp
°C
App
Temp
°C
Dew
Point
Rel
Hum
%
Delta-T
°C
Wind Press
QNH
hPa
Press
MSL
hPa
Rain
since 9 am
mm
Dir
 
Spd
km/h
Gust
km/h
Spd
kts
Gust
kts
23/11:30pm 15.2 12.6 10.6 74 2.4 E 15 22 8 12 1013.3 1013.2 0.0
23/11:00pm 15.5 13.0 10.9 74 2.5 ESE 15 24 8 13 1013.6 1013.4 0.0
23/10:30pm 16.0 14.2 12.0 77 2.2 E 13 20 7 11 1013.3 1013.2 0.0
23/10:00pm 16.8 15.0 12.1 74 2.6 E 13 22 7 12 1013.1 1013.0 0.0
23/09:30pm 17.4 16.9 12.5 73 2.7 E 7 11 4 6 1013.8 1013.6 0.0
23/09:00pm 18.1 17.0 13.0 72 2.9 E 11 19 6 10 1013.6 1013.4 0.0
23/08:30pm 18.5 18.3 12.9 70 3.2 E 6 9 3 5 1013.6 1013.4 0.0
23/08:00pm 19.1 19.9 13.7 71 3.1 SE 2 7 1 4 1013.7 1013.5 0.0
23/07:30pm 19.5 19.5 12.3 63 4.0 S 4 7 2 4 1013.2 1013.1 0.0
23/07:00pm 20.3 20.3 12.3 60 4.5 S 4 6 2 3 1013.0 1012.9 0.0
23/06:30pm 20.4 20.2 12.9 62 4.3 S 6 9 3 5 1012.6 1012.5 0.0
23/06:00pm 20.9 20.5 13.1 61 4.5 SSW 7 11 4 6 1012.3 1012.2 0.0
23/05:30pm 21.4 21.1 13.3 60 4.7 SSW 7 13 4 7 1012.2 1012.1 0.0
23/05:00pm 22.7 21.9 15.0 61 4.6 S 13 19 7 10 1011.8 1011.6 0.0
23/04:30pm 22.5 21.4 15.4 64 4.3 S 15 20 8 11 1011.0 1010.8 0.0
23/04:00pm 24.3 25.0 15.5 58 5.3 WSW 6 13 3 7 1010.7 1010.5 0.0
23/03:30pm 24.2 24.3 15.4 58 5.3 W 9 15 5 8 1010.6 1010.4 0.0
23/03:00pm 24.4 25.4 15.3 57 5.5 SSW 4 7 2 4 1010.5 1010.3 0.0
23/02:30pm 24.1 24.8 15.6 59 5.2 W 6 13 3 7 1010.4 1010.2 0.0
23/02:00pm 23.6 24.9 17.6 69 3.8 SSW 7 15 4 8 1010.7 1010.5 0.0
23/01:30pm 23.4 24.1 15.5 61 4.8 SW 6 13 3 7 1010.9 1010.7 0.0
23/01:00pm 22.7 23.2 15.5 64 4.3 SSW 7 15 4 8 1011.2 1011.0 0.0
23/12:30pm 22.4 22.4 14.3 60 4.8 WSW 7 13 4 7 1011.4 1011.2 0.0
23/12:00pm 22.0 22.3 14.4 62 4.5 SSW 6 11 3 6 1011.7 1011.5 0.0
23/11:30am 21.7 22.1 15.3 67 3.8 W 7 13 4 7 1011.9 1011.7 0.0
23/11:00am 20.6 20.7 14.0 66 3.8 WSW 6 11 3 6 1012.2 1012.1 0.0
23/10:30am 20.3 20.6 14.4 69 3.5 W 6 13 3 7 1012.4 1012.3 0.0
23/10:00am 19.1 18.4 12.1 64 3.9 SW 7 13 4 7 1012.6 1012.5 0.0
23/09:30am 18.8 18.5 12.8 68 3.4 WSW 6 9 3 5 1012.6 1012.5 0.0
23/09:00am 18.3 17.8 12.7 70 3.2 W 7 11 4 6 1012.7 1012.6 0.0

Other Formats:

Comma delimited format used in spreadsheet applications
http://www.bom.gov.au/fwo/IDV60801/IDV60801.99806.axf

JavaScript Object Notation format (JSON) in row-major order
http://www.bom.gov.au/fwo/IDV60801/IDV60801.99806.json